createdAt,value
2018-11-06T00:01:07.653Z,6.00
2018-11-06T00:04:11.086Z,6.00
2018-11-06T00:07:14.145Z,6.00
2018-11-06T00:10:17.270Z,6.00
2018-11-06T00:13:20.329Z,6.00
2018-11-06T00:16:23.463Z,6.00
2018-11-06T00:19:26.515Z,5.90
2018-11-06T00:22:29.648Z,5.90
2018-11-06T00:25:32.681Z,5.80
2018-11-06T00:28:36.029Z,5.80
2018-11-06T00:31:39.085Z,5.70
2018-11-06T00:34:42.218Z,5.70
2018-11-06T00:37:45.375Z,5.70
2018-11-06T00:40:48.505Z,5.80
2018-11-06T00:43:51.558Z,5.70
2018-11-06T00:46:54.721Z,5.80
2018-11-06T00:49:57.745Z,5.80
2018-11-06T00:53:00.889Z,5.70
2018-11-06T00:56:04.046Z,5.60
2018-11-06T00:59:07.319Z,5.60
2018-11-06T01:02:10.422Z,5.60
2018-11-06T01:05:14.429Z,5.60
2018-11-06T01:08:17.529Z,5.60
2018-11-06T01:11:20.782Z,5.50
2018-11-06T01:14:23.823Z,5.50
2018-11-06T01:17:27.054Z,5.50
2018-11-06T01:20:30.111Z,5.40
2018-11-06T01:23:33.230Z,5.50
2018-11-06T01:26:36.381Z,5.50
2018-11-06T01:29:39.725Z,5.50
2018-11-06T01:32:43.645Z,5.50
2018-11-06T01:35:46.733Z,5.40
2018-11-06T01:38:49.795Z,5.40
2018-11-06T01:41:52.922Z,5.40
2018-11-06T01:44:56.077Z,5.40
2018-11-06T01:47:59.205Z,5.40
2018-11-06T01:51:02.261Z,5.40
2018-11-06T01:54:05.393Z,5.40
2018-11-06T01:57:08.453Z,5.40
2018-11-06T02:00:14.686Z,5.40
2018-11-06T02:03:17.744Z,5.30
2018-11-06T02:06:20.949Z,5.30
2018-11-06T02:09:23.978Z,5.30
2018-11-06T02:12:27.124Z,5.30
2018-11-06T02:15:30.177Z,5.30
2018-11-06T02:18:33.410Z,5.20
2018-11-06T02:21:36.465Z,5.20
2018-11-06T02:24:39.761Z,5.10
2018-11-06T02:27:42.957Z,5.00
2018-11-06T02:30:46.086Z,5.00
2018-11-06T02:33:49.141Z,4.90
2018-11-06T02:36:52.277Z,4.90
2018-11-06T02:39:55.329Z,4.80
2018-11-06T02:42:58.462Z,4.80
2018-11-06T02:46:01.523Z,4.80
2018-11-06T02:49:04.940Z,4.80
2018-11-06T02:52:08.005Z,4.80
2018-11-06T02:55:11.454Z,4.70
2018-11-06T02:58:14.533Z,4.70
2018-11-06T03:01:17.629Z,4.80
2018-11-06T03:04:20.681Z,4.70
2018-11-06T03:07:24.122Z,4.70
2018-11-06T03:10:27.290Z,4.60
2018-11-06T03:13:30.310Z,4.60
2018-11-06T03:16:33.569Z,4.50
2018-11-06T03:19:36.706Z,4.40
2018-11-06T03:22:40.270Z,4.30
2018-11-06T03:25:43.393Z,4.40
2018-11-06T03:28:46.442Z,4.40
2018-11-06T03:31:49.592Z,4.30
2018-11-06T03:34:52.622Z,4.20
2018-11-06T03:37:55.869Z,4.20
2018-11-06T03:40:58.909Z,4.20
2018-11-06T03:44:02.098Z,4.20
2018-11-06T03:47:05.111Z,4.20
2018-11-06T03:50:09.817Z,4.20
2018-11-06T03:53:12.933Z,4.20
2018-11-06T03:56:16.269Z,4.20
2018-11-06T03:59:19.778Z,4.10
2018-11-06T04:02:22.866Z,4.10
2018-11-06T04:05:26.028Z,4.10
2018-11-06T04:08:29.274Z,4.00
2018-11-06T04:11:32.310Z,4.00
2018-11-06T04:14:35.805Z,3.90
2018-11-06T04:17:39.006Z,3.90
2018-11-06T04:20:42.250Z,3.90
2018-11-06T04:23:45.289Z,3.90
2018-11-06T04:26:48.674Z,3.80
2018-11-06T04:29:51.673Z,3.80
2018-11-06T04:32:54.818Z,3.80
2018-11-06T04:35:57.858Z,3.80
2018-11-06T04:39:01.046Z,3.80
2018-11-06T04:42:04.353Z,3.90
2018-11-06T04:45:08.627Z,3.90
2018-11-06T04:48:11.670Z,3.90
2018-11-06T04:51:15.069Z,3.80
2018-11-06T04:54:18.174Z,3.80
2018-11-06T04:57:21.437Z,3.80
2018-11-06T05:00:24.666Z,3.80
2018-11-06T05:03:27.902Z,3.80
2018-11-06T05:06:31.142Z,3.80
2018-11-06T05:09:34.386Z,3.80
2018-11-06T05:12:37.645Z,3.70
2018-11-06T05:15:40.897Z,3.70
2018-11-06T05:18:44.142Z,3.60
2018-11-06T05:21:47.265Z,3.60
2018-11-06T05:24:50.321Z,3.70
2018-11-06T05:27:53.558Z,3.60
2018-11-06T05:30:56.710Z,3.50
2018-11-06T05:33:59.938Z,3.50
2018-11-06T05:37:02.994Z,3.50
2018-11-06T05:40:17.299Z,3.60
2018-11-06T05:43:20.342Z,3.50
2018-11-06T05:46:23.677Z,3.60
2018-11-06T05:49:26.737Z,3.50
2018-11-06T05:52:30.685Z,3.50
2018-11-06T05:55:33.742Z,3.50
2018-11-06T05:58:37.006Z,3.40
2018-11-06T06:01:40.034Z,3.40
2018-11-06T06:04:43.669Z,3.30
2018-11-06T06:07:46.832Z,3.30
2018-11-06T06:10:50.314Z,3.30
2018-11-06T06:13:53.343Z,3.30
2018-11-06T06:16:56.692Z,3.30
2018-11-06T06:19:59.606Z,3.20
2018-11-06T06:23:02.837Z,3.20
2018-11-06T06:26:05.997Z,3.20
2018-11-06T06:29:09.426Z,3.30
2018-11-06T06:32:12.494Z,3.30
2018-11-06T06:35:15.702Z,3.30
2018-11-06T06:38:18.782Z,3.40
2018-11-06T06:41:22.017Z,3.50
2018-11-06T06:44:25.169Z,3.50
2018-11-06T06:47:28.334Z,3.60
2018-11-06T06:50:31.441Z,3.80
2018-11-06T06:53:34.690Z,4.00
2018-11-06T06:56:37.861Z,4.10
2018-11-06T06:59:41.154Z,4.10
2018-11-06T07:02:44.346Z,4.10
2018-11-06T07:05:47.713Z,4.20
2018-11-06T07:08:50.837Z,4.20
2018-11-06T07:11:54.409Z,4.30
2018-11-06T07:14:57.425Z,4.40
2018-11-06T07:18:00.593Z,4.50
2018-11-06T07:21:03.722Z,4.60
2018-11-06T07:24:06.846Z,4.70
2018-11-06T07:27:09.902Z,4.70
2018-11-06T07:30:15.118Z,4.80
2018-11-06T07:33:18.338Z,4.90
2018-11-06T07:36:21.465Z,5.10
2018-11-06T07:39:24.523Z,5.20
2018-11-06T07:42:27.957Z,5.30
2018-11-06T07:45:31.002Z,5.50
2018-11-06T07:48:34.158Z,5.60
2018-11-06T07:51:37.206Z,5.80
2018-11-06T07:54:40.430Z,5.90
2018-11-06T07:57:43.593Z,6.10
2018-11-06T08:00:46.867Z,6.20
2018-11-06T08:03:49.983Z,6.40
2018-11-06T08:06:53.114Z,6.60
2018-11-06T08:09:56.170Z,6.70
2018-11-06T08:12:59.297Z,6.90
2018-11-06T08:16:02.355Z,7.00
2018-11-06T08:19:05.774Z,7.10
2018-11-06T08:22:08.833Z,7.20
2018-11-06T08:25:13.151Z,7.30
2018-11-06T08:28:16.467Z,7.50
2018-11-06T08:31:19.855Z,7.60
2018-11-06T08:34:22.750Z,7.90
2018-11-06T08:37:26.114Z,8.20
2018-11-06T08:40:29.179Z,8.30
2018-11-06T08:43:32.238Z,8.50
2018-11-06T08:46:35.366Z,8.60
2018-11-06T08:49:38.425Z,8.80
2018-11-06T08:52:41.814Z,9.00
2018-11-06T08:55:45.129Z,9.20
2018-11-06T08:58:48.210Z,9.50
2018-11-06T09:01:51.542Z,9.60
2018-11-06T09:04:54.608Z,9.80
2018-11-06T09:07:57.730Z,9.90
2018-11-06T09:11:00.773Z,10.00
2018-11-06T09:14:04.270Z,10.20
2018-11-06T09:17:07.461Z,10.50
2018-11-06T09:20:11.888Z,10.80
2018-11-06T09:23:15.112Z,11.10
2018-11-06T09:26:18.269Z,11.40
2018-11-06T09:29:21.291Z,11.70
2018-11-06T09:32:24.622Z,11.90
2018-11-06T09:35:27.678Z,12.10
2018-11-06T09:38:30.902Z,12.30
2018-11-06T09:41:34.072Z,12.70
2018-11-06T09:44:37.339Z,13.10
2018-11-06T09:47:40.360Z,13.40
2018-11-06T09:50:43.512Z,13.50
2018-11-06T09:53:46.545Z,13.70
2018-11-06T09:56:49.973Z,13.90
2018-11-06T09:59:53.137Z,14.20
2018-11-06T10:02:56.394Z,14.40
2018-11-06T10:05:59.436Z,14.50
2018-11-06T10:09:02.789Z,14.60
2018-11-06T10:12:05.813Z,14.80
2018-11-06T10:15:10.957Z,15.10
2018-11-06T10:18:14.142Z,15.30
2018-11-06T10:21:17.506Z,15.50
2018-11-06T10:24:20.537Z,15.60
2018-11-06T10:27:23.669Z,15.70
2018-11-06T10:30:26.843Z,16.40
2018-11-06T10:33:30.012Z,16.70
2018-11-06T10:36:33.214Z,17.20
2018-11-06T10:39:36.346Z,18.00
2018-11-06T10:42:39.406Z,18.60
2018-11-06T10:45:42.722Z,18.70
2018-11-06T10:48:45.789Z,18.70
2018-11-06T10:51:48.986Z,19.00
2018-11-06T10:54:52.390Z,19.10
2018-11-06T10:57:55.577Z,19.70
2018-11-06T11:01:04.200Z,20.80
2018-11-06T11:04:12.950Z,21.30
2018-11-06T11:07:16.229Z,21.70
2018-11-06T11:10:19.462Z,23.00
2018-11-06T11:13:22.518Z,22.60
2018-11-06T11:16:25.745Z,22.60
2018-11-06T11:19:28.944Z,22.70
2018-11-06T11:22:32.037Z,23.80
2018-11-06T11:25:35.146Z,23.80
2018-11-06T11:28:38.262Z,24.80
2018-11-06T11:31:41.323Z,25.30
2018-11-06T11:34:44.410Z,25.70
2018-11-06T11:37:47.548Z,24.90
2018-11-06T11:40:50.838Z,24.60
2018-11-06T11:43:54.162Z,24.80
2018-11-06T11:46:57.286Z,25.80
2018-11-06T11:50:00.342Z,26.60
2018-11-06T11:53:03.474Z,27.10
2018-11-06T11:56:06.529Z,27.80
2018-11-06T11:59:09.661Z,27.30
2018-11-06T12:02:12.749Z,27.20
2018-11-06T12:05:15.969Z,28.20
2018-11-06T12:08:19.143Z,28.70
2018-11-06T12:11:22.234Z,29.10
2018-11-06T12:14:25.290Z,28.60
2018-11-06T12:17:28.612Z,28.50
2018-11-06T12:20:31.678Z,29.00
2018-11-06T12:23:34.919Z,28.40
2018-11-06T12:26:37.969Z,28.40
2018-11-06T12:29:41.418Z,28.90
2018-11-06T12:32:44.734Z,28.70
2018-11-06T12:35:47.914Z,28.50
2018-11-06T12:38:50.954Z,27.80
2018-11-06T12:41:54.094Z,27.70
2018-11-06T12:44:57.301Z,28.00
2018-11-06T12:48:00.438Z,27.00
2018-11-06T12:51:03.580Z,27.10
2018-11-06T12:54:06.626Z,27.30
2018-11-06T12:57:10.057Z,26.40
2018-11-06T13:00:14.798Z,26.20
2018-11-06T13:03:18.010Z,25.20
2018-11-06T13:06:21.146Z,23.70
2018-11-06T13:09:24.274Z,21.50
2018-11-06T13:12:27.334Z,20.70
2018-11-06T13:15:30.769Z,20.10
2018-11-06T13:18:34.234Z,19.60
2018-11-06T13:21:37.353Z,19.20
2018-11-06T13:24:40.422Z,19.00
2018-11-06T13:27:43.749Z,18.70
2018-11-06T13:30:46.860Z,18.30
2018-11-06T13:33:50.146Z,18.10
2018-11-06T13:36:53.401Z,17.90
2018-11-06T13:39:56.545Z,17.80
2018-11-06T13:42:59.668Z,17.80
2018-11-06T13:46:02.710Z,17.70
2018-11-06T13:49:05.877Z,17.60
2018-11-06T13:52:09.042Z,17.40
2018-11-06T13:55:13.391Z,17.40
2018-11-06T13:58:16.526Z,17.40
2018-11-06T14:01:19.574Z,17.50
2018-11-06T14:04:22.833Z,18.10
2018-11-06T14:07:26.073Z,18.50
2018-11-06T14:10:29.197Z,18.90
2018-11-06T14:13:32.357Z,18.90
2018-11-06T14:16:35.894Z,18.80
2018-11-06T14:19:38.954Z,18.40
2018-11-06T14:22:42.185Z,18.60
2018-11-06T14:25:45.342Z,19.40
2018-11-06T14:28:48.774Z,20.00
2018-11-06T14:31:51.878Z,19.90
2018-11-06T14:34:54.955Z,19.00
2018-11-06T14:37:58.227Z,18.50
2018-11-06T14:41:01.469Z,18.20
2018-11-06T14:44:04.620Z,17.80
2018-11-06T14:47:07.746Z,17.40
2018-11-06T14:50:11.519Z,17.00
2018-11-06T14:53:14.646Z,16.60
2018-11-06T14:56:17.706Z,16.30
2018-11-06T14:59:21.138Z,16.00
2018-11-06T15:02:24.193Z,15.80
2018-11-06T15:05:27.364Z,15.60
2018-11-06T15:08:30.677Z,15.40
2018-11-06T15:11:33.962Z,15.30
2018-11-06T15:14:37.286Z,15.00
2018-11-06T15:17:41.582Z,14.90
2018-11-06T15:20:44.744Z,14.70
2018-11-06T15:23:48.134Z,14.60
2018-11-06T15:26:51.103Z,14.40
2018-11-06T15:29:54.215Z,14.30
2018-11-06T15:32:57.277Z,14.20
2018-11-06T15:36:00.582Z,14.00
2018-11-06T15:39:05.174Z,13.80
2018-11-06T15:42:08.503Z,13.60
2018-11-06T15:45:14.657Z,13.40
2018-11-06T15:48:17.994Z,13.20
2018-11-06T15:51:21.054Z,13.00
2018-11-06T15:54:24.235Z,12.80
2018-11-06T15:57:27.234Z,12.70
2018-11-06T16:00:30.478Z,12.40
2018-11-06T16:03:33.564Z,12.30
2018-11-06T16:06:36.671Z,12.20
2018-11-06T16:09:39.917Z,12.10
2018-11-06T16:12:43.763Z,12.00
2018-11-06T16:15:47.010Z,11.80
2018-11-06T16:18:50.353Z,11.70
2018-11-06T16:21:53.416Z,11.60
2018-11-06T16:24:56.535Z,11.50
2018-11-06T16:27:59.701Z,11.40
2018-11-06T16:31:03.134Z,11.30
2018-11-06T16:34:06.194Z,11.20
2018-11-06T16:37:09.438Z,11.10
2018-11-06T16:40:13.194Z,11.00
2018-11-06T16:43:16.430Z,10.80
2018-11-06T16:46:19.493Z,10.70
2018-11-06T16:49:22.617Z,10.70
2018-11-06T16:52:25.673Z,10.50
2018-11-06T16:55:28.801Z,10.30
2018-11-06T16:58:31.958Z,10.20
2018-11-06T17:01:35.090Z,10.10
2018-11-06T17:04:38.146Z,10.00
2018-11-06T17:07:41.686Z,9.90
2018-11-06T17:10:44.734Z,9.80
2018-11-06T17:13:47.875Z,9.70
2018-11-06T17:16:50.925Z,9.60
2018-11-06T17:19:54.054Z,9.50
2018-11-06T17:22:57.098Z,9.40
2018-11-06T17:26:00.474Z,9.30
2018-11-06T17:29:04.158Z,9.20
2018-11-06T17:32:07.345Z,9.20
2018-11-06T17:35:11.906Z,9.30
2018-11-06T17:38:15.002Z,9.20
2018-11-06T17:41:18.330Z,9.10
2018-11-06T17:44:21.454Z,8.90
2018-11-06T17:47:24.613Z,8.80
2018-11-06T17:50:27.784Z,8.80
2018-11-06T17:53:30.798Z,8.70
2018-11-06T17:56:33.930Z,8.70
2018-11-06T17:59:36.991Z,8.80
2018-11-06T18:02:40.626Z,8.80
2018-11-06T18:05:43.885Z,8.70
2018-11-06T18:08:47.018Z,8.60
2018-11-06T18:11:50.101Z,8.50
2018-11-06T18:14:53.329Z,8.50
2018-11-06T18:17:56.558Z,8.60
2018-11-06T18:20:59.494Z,8.50
2018-11-06T18:24:02.650Z,8.40
2018-11-06T18:27:05.813Z,8.30
2018-11-06T18:30:14.409Z,8.30
2018-11-06T18:33:17.602Z,8.30
2018-11-06T18:36:20.750Z,8.30
2018-11-06T18:39:23.887Z,8.20
2018-11-06T18:42:26.931Z,8.20
2018-11-06T18:45:30.070Z,8.20
2018-11-06T18:48:33.130Z,8.10
2018-11-06T18:51:36.254Z,8.00
2018-11-06T18:54:39.350Z,7.90
2018-11-06T18:57:42.710Z,7.80
2018-11-06T19:00:45.841Z,7.80
2018-11-06T19:03:48.898Z,7.80
2018-11-06T19:06:52.230Z,7.70
2018-11-06T19:09:55.378Z,7.70
2018-11-06T19:12:58.501Z,7.70
2018-11-06T19:16:01.674Z,7.70
2018-11-06T19:19:05.011Z,7.60
2018-11-06T19:22:08.066Z,7.50
2018-11-06T19:25:12.054Z,7.50
2018-11-06T19:28:15.173Z,7.40
2018-11-06T19:31:18.412Z,7.40
2018-11-06T19:34:21.566Z,7.30
2018-11-06T19:37:24.798Z,7.30
2018-11-06T19:40:27.974Z,7.20
2018-11-06T19:43:31.078Z,7.20
2018-11-06T19:46:34.139Z,7.30
2018-11-06T19:49:37.607Z,7.30
2018-11-06T19:52:40.919Z,7.30
2018-11-06T19:55:44.073Z,7.30
2018-11-06T19:58:47.133Z,7.20
2018-11-06T20:01:50.961Z,7.20
2018-11-06T20:04:54.119Z,7.00
2018-11-06T20:07:57.258Z,6.90
2018-11-06T20:11:00.303Z,6.90
2018-11-06T20:14:03.546Z,7.00
2018-11-06T20:17:06.604Z,6.90
2018-11-06T20:20:13.047Z,6.80
2018-11-06T20:23:16.170Z,6.80
2018-11-06T20:26:19.502Z,6.70
2018-11-06T20:29:22.762Z,6.70
2018-11-06T20:32:26.090Z,6.70
2018-11-06T20:35:29.292Z,6.70
2018-11-06T20:38:32.385Z,6.80
2018-11-06T20:41:35.442Z,6.90
2018-11-06T20:44:38.672Z,7.00
2018-11-06T20:47:42.447Z,7.00
2018-11-06T20:50:45.573Z,7.00
2018-11-06T20:53:48.731Z,6.90
2018-11-06T20:56:52.351Z,7.00
2018-11-06T20:59:55.487Z,7.00
2018-11-06T21:03:00.920Z,6.90
2018-11-06T21:06:04.104Z,7.00
2018-11-06T21:09:09.174Z,7.00
2018-11-06T21:12:12.307Z,7.00
2018-11-06T21:15:15.540Z,6.90
2018-11-06T21:18:18.606Z,6.90
2018-11-06T21:21:21.930Z,6.60
2018-11-06T21:24:25.090Z,6.50
2018-11-06T21:27:28.420Z,6.40
2018-11-06T21:30:31.579Z,6.40
2018-11-06T21:33:35.028Z,6.30
2018-11-06T21:36:38.170Z,6.30
2018-11-06T21:39:41.302Z,6.40
2018-11-06T21:42:44.874Z,6.50
2018-11-06T21:45:48.204Z,6.60
2018-11-06T21:48:51.254Z,6.70
2018-11-06T21:51:54.500Z,6.80
2018-11-06T21:54:57.694Z,6.80
2018-11-06T21:58:01.089Z,6.80
2018-11-06T22:01:04.455Z,6.80
2018-11-06T22:04:07.618Z,6.80
2018-11-06T22:07:10.646Z,6.70
2018-11-06T22:10:15.094Z,6.70
2018-11-06T22:13:18.142Z,6.60
2018-11-06T22:16:21.366Z,6.60
2018-11-06T22:19:24.437Z,6.60
2018-11-06T22:22:27.596Z,6.60
2018-11-06T22:25:30.634Z,6.80
2018-11-06T22:28:33.958Z,6.80
2018-11-06T22:31:37.358Z,6.70
2018-11-06T22:34:40.350Z,6.80
2018-11-06T22:37:43.615Z,6.80
2018-11-06T22:40:47.145Z,6.70
2018-11-06T22:43:50.314Z,6.60
2018-11-06T22:46:53.345Z,6.60
2018-11-06T22:49:56.586Z,6.60
2018-11-06T22:53:00.342Z,6.60
2018-11-06T22:56:03.502Z,6.50
2018-11-06T22:59:06.833Z,6.50
2018-11-06T23:02:09.885Z,6.60
2018-11-06T23:05:13.529Z,6.50
2018-11-06T23:08:22.054Z,6.40
2018-11-06T23:11:25.346Z,6.30
2018-11-06T23:14:28.506Z,6.30
2018-11-06T23:17:31.810Z,6.40
2018-11-06T23:20:35.039Z,6.40
2018-11-06T23:23:38.126Z,6.30
2018-11-06T23:26:41.289Z,6.30
2018-11-06T23:29:44.717Z,6.40
2018-11-06T23:32:47.778Z,6.40
2018-11-06T23:35:50.920Z,6.40
2018-11-06T23:38:54.153Z,6.40
2018-11-06T23:41:57.302Z,6.30
2018-11-06T23:45:00.354Z,6.20
2018-11-06T23:48:03.686Z,6.30
2018-11-06T23:51:06.845Z,6.20
2018-11-06T23:54:10.080Z,6.00
2018-11-06T23:57:13.226Z,6.00
